Dobrodošli na spletni strani vremenske postaje Senovo. Vse informacije so informativnega značaja, saj vremenska postaja ni del državne mreže meteoroloških postaj. AKTUALNIH OBVESTIL NI.


Sneg/Led Od: 23-02-2018 00:00 Do: 23:59 Opozorilo za: Sneg/Led Stopnja: Rumena info button

Pogled proti Armezu več informacij Pogled proti Armezu


Lisca več informacij Lisca


Radar strel več informacij blitzortung!


opozorilo za sneg/led več informacij rain snow radar


Obiščite še:

Template documentation
and downloads

And another site



Weather Underground, zgodovina - Tekstovno

Dnevni povzetek za Januar 18, 2018 Enote:  Obe    Angleško   Metrično
« Predhodni Dan
Naslednji Dan »
Dnevni Tedenski Mesečni Letni Po meri
  Višja: Nižja: Povprečje:
Temperatura: TemperatureC °F /  -17.8 °C -5.0 °F /  -20.6 °C 1.4 °F /  -17 °C
Točka rosišča: DewpointC °F /  -17.8 °C -24.2 °F /  -31.2 °C -7.1 °F /  -21.7 °C
Vlažnost: Humidity % 8 % 60 %
Hitrost vetra: WindSpeedKMH mph /  0 km/h - 2.8 mph /  4.5 km/h
Sunki vetra: WindSpeedGustKMH mph /  0 km/h - -
Veter:- - WSW
Zračni tlak: PressurehPa in /  0 hPa 1003.9 in /  33992.1 hPa -
Padavine: 0.0 in /  0 mm    
Historical Graphs
 
 
Tabelarni podarki za Januar 18, 2018
Čas Temperatura Točka rosišča Zračni tlak Veter Hitrost vetra Sunki vetra Vlažnost Intenziteta padavin (urna)
TemperatureC °F /  -17.8 °C DewpointC °F /  -17.8 °C PressurehPa in /  0 hPa Calm     Humidity % HourlyPrecipMM in /  0 mm
00:01 -2.4 °F /  -19.1 °C -8.3 °F /  -22.4 °C 1008.0 in /  34130.9 hPa WNW 1.8 mph /  2.9 km/h 5.5 mph /  8.9 km/h 64 % 0.0 in /  0 mm
00:07 -2.4 °F /  -19.1 °C -8.3 °F /  -22.4 °C 1008.0 in /  34130.9 hPa WNW 2.6 mph /  4.2 km/h 5.5 mph /  8.9 km/h 64 % 0.0 in /  0 mm
00:12 -2.5 °F /  -19.2 °C -8.2 °F /  -22.3 °C 1009.0 in /  34164.7 hPa West 2.1 mph /  3.4 km/h 5.5 mph /  8.9 km/h 65 % 0.0 in /  0 mm
00:17 -2.5 °F /  -19.2 °C -8.2 °F /  -22.3 °C 1009.0 in /  34164.7 hPa NNW 1.6 mph /  2.6 km/h 4.3 mph /  6.9 km/h 65 % 0.0 in /  0 mm
00:22 -2.6 °F /  -19.2 °C -8.3 °F /  -22.4 °C 1009.0 in /  34164.7 hPa NNW 2.1 mph /  3.4 km/h 4.3 mph /  6.9 km/h 65 % 0.0 in /  0 mm
00:27 -2.6 °F /  -19.2 °C -8.1 °F /  -22.3 °C 1009.0 in /  34164.7 hPa SSW 1.3 mph /  2.1 km/h 4.0 mph /  6.4 km/h 66 % 0.0 in /  0 mm
00:32 -2.7 °F /  -19.3 °C -8.2 °F /  -22.3 °C 1009.0 in /  34164.7 hPa SW 1.1 mph /  1.8 km/h 3.5 mph /  5.6 km/h 66 % 0.0 in /  0 mm
00:37 -2.7 °F /  -19.3 °C -8.2 °F /  -22.3 °C 1009.0 in /  34164.7 hPa SW 0.6 mph /  1 km/h 3.2 mph /  5.1 km/h 66 % 0.3 in /  7.62 mm
00:42 -2.8 °F /  -19.3 °C -8.1 °F /  -22.3 °C 1009.0 in /  34164.7 hPa SSW 1.9 mph /  3.1 km/h 5.5 mph /  8.9 km/h 67 % 0.3 in /  7.62 mm
00:47 -2.8 °F /  -19.3 °C -8.1 °F /  -22.3 °C 1009.0 in /  34164.7 hPa SW 2.4 mph /  3.9 km/h 5.5 mph /  8.9 km/h 67 % 0.3 in /  7.62 mm
00:52 -2.8 °F /  -19.3 °C -8.1 °F /  -22.3 °C 1009.0 in /  34164.7 hPa NW 1.6 mph /  2.6 km/h 4.7 mph /  7.6 km/h 67 % 0.3 in /  7.62 mm
00:57 -2.9 °F /  -19.4 °C -8.0 °F /  -22.2 °C 1009.0 in /  34164.7 hPa NW 1.3 mph /  2.1 km/h 4.0 mph /  6.4 km/h 68 % 0.3 in /  7.62 mm
01:02 -2.9 °F /  -19.4 °C -8.0 °F /  -22.2 °C 1009.0 in /  34164.7 hPa West 1.0 mph /  1.6 km/h 4.0 mph /  6.4 km/h 68 % 0.3 in /  7.62 mm
01:07 -2.9 °F /  -19.4 °C -8.0 °F /  -22.2 °C 1009.0 in /  34164.7 hPa WSW 1.0 mph /  1.6 km/h 4.0 mph /  6.4 km/h 68 % 0.3 in /  7.62 mm
01:12 -3.0 °F /  -19.4 °C -7.9 °F /  -22.2 °C 1009.0 in /  34164.7 hPa WSW 0.6 mph /  1 km/h 3.2 mph /  5.1 km/h 69 % 0.3 in /  7.62 mm
01:17 -3.1 °F /  -19.5 °C -8.0 °F /  -22.2 °C 1009.0 in /  34164.7 hPa WSW 0.6 mph /  1 km/h 4.0 mph /  6.4 km/h 69 % 0.3 in /  7.62 mm
01:22 -3.1 °F /  -19.5 °C -8.0 °F /  -22.2 °C 1009.0 in /  34164.7 hPa WSW 0.8 mph /  1.3 km/h 5.5 mph /  8.9 km/h 69 % 0.3 in /  7.62 mm
01:27 -3.1 °F /  -19.5 °C -7.8 °F /  -22.1 °C 1010.0 in /  34198.6 hPa SW 2.1 mph /  3.4 km/h 5.5 mph /  8.9 km/h 70 % 0.3 in /  7.62 mm
01:32 -3.1 °F /  -19.5 °C -7.8 °F /  -22.1 °C 1010.0 in /  34198.6 hPa WSW 2.6 mph /  4.2 km/h 4.7 mph /  7.6 km/h 70 % 0.3 in /  7.62 mm
01:37 -3.2 °F /  -19.6 °C -7.9 °F /  -22.2 °C 1010.0 in /  34198.6 hPa WNW 1.9 mph /  3.1 km/h 4.7 mph /  7.6 km/h 70 % 0.0 in /  0 mm
01:42 -3.3 °F /  -19.6 °C -8.0 °F /  -22.2 °C 1010.0 in /  34198.6 hPa WNW 2.7 mph /  4.3 km/h 4.0 mph /  6.4 km/h 70 % 0.0 in /  0 mm
01:47 -3.3 °F /  -19.6 °C -7.8 °F /  -22.1 °C 1010.0 in /  34198.6 hPa WNW 2.4 mph /  3.9 km/h 4.0 mph /  6.4 km/h 71 % 0.0 in /  0 mm
01:52 -3.2 °F /  -19.6 °C -7.7 °F /  -22.1 °C 1010.0 in /  34198.6 hPa West 1.9 mph /  3.1 km/h 4.3 mph /  6.9 km/h 71 % 0.0 in /  0 mm
01:57 -3.3 °F /  -19.6 °C -7.8 °F /  -22.1 °C 1010.0 in /  34198.6 hPa NW 1.3 mph /  2.1 km/h 4.3 mph /  6.9 km/h 71 % 0.0 in /  0 mm
02:02 -3.3 °F /  -19.6 °C -7.8 °F /  -22.1 °C 1010.0 in /  34198.6 hPa NE 0.3 mph /  0.5 km/h 3.5 mph /  5.6 km/h 71 % 0.0 in /  0 mm
02:07 -3.3 °F /  -19.6 °C -7.6 °F /  -22 °C 1010.0 in /  34198.6 hPa SW 0.3 mph /  0.5 km/h 3.5 mph /  5.6 km/h 72 % 0.0 in /  0 mm
02:12 -3.4 °F /  -19.7 °C -7.7 °F /  -22.1 °C 1010.0 in /  34198.6 hPa WSW 1.6 mph /  2.6 km/h 4.7 mph /  7.6 km/h 72 % 0.0 in /  0 mm
02:17 -3.4 °F /  -19.7 °C -7.7 °F /  -22.1 °C 1010.0 in /  34198.6 hPa WSW 2.7 mph /  4.3 km/h 4.7 mph /  7.6 km/h 72 % 0.0 in /  0 mm
02:22 -3.5 °F /  -19.7 °C -7.8 °F /  -22.1 °C 1010.0 in /  34198.6 hPa SW 2.3 mph /  3.7 km/h 4.7 mph /  7.6 km/h 72 % 0.0 in /  0 mm
02:27 -3.5 °F /  -19.7 °C -7.8 °F /  -22.1 °C 1010.0 in /  34198.6 hPa WNW 1.3 mph /  2.1 km/h 4.3 mph /  6.9 km/h 72 % 0.0 in /  0 mm
02:32 -3.5 °F /  -19.7 °C -7.8 °F /  -22.1 °C 1010.0 in /  34198.6 hPa WNW 2.4 mph /  3.9 km/h 5.5 mph /  8.9 km/h 72 % 0.0 in /  0 mm
02:37 -3.6 °F /  -19.8 °C -7.7 °F /  -22.1 °C 1010.0 in /  34198.6 hPa WNW 2.6 mph /  4.2 km/h 5.5 mph /  8.9 km/h 73 % 0.0 in /  0 mm
02:42 -3.6 °F /  -19.8 °C -7.7 °F /  -22.1 °C 1011.1 in /  34235.8 hPa West 0.6 mph /  1 km/h 3.5 mph /  5.6 km/h 73 % 0.0 in /  0 mm
02:47 -3.7 °F /  -19.8 °C -7.8 °F /  -22.1 °C 1011.1 in /  34235.8 hPa Calm     73 % 0.0 in /  0 mm
02:52 -3.7 °F /  -19.8 °C -7.8 °F /  -22.1 °C 1011.1 in /  34235.8 hPa SW 0.3 mph /  0.5 km/h 4.0 mph /  6.4 km/h 73 % 0.0 in /  0 mm
02:57 -3.7 °F /  -19.8 °C -7.8 °F /  -22.1 °C 1011.1 in /  34235.8 hPa West 0.8 mph /  1.3 km/h 4.0 mph /  6.4 km/h 73 % 0.0 in /  0 mm
03:02 -3.8 °F /  -19.9 °C -7.9 °F /  -22.2 °C 1011.1 in /  34235.8 hPa NW 1.1 mph /  1.8 km/h 4.0 mph /  6.4 km/h 73 % 0.0 in /  0 mm
03:07 -3.8 °F /  -19.9 °C -7.8 °F /  -22.1 °C 1011.1 in /  34235.8 hPa NNW 0.6 mph /  1 km/h 4.0 mph /  6.4 km/h 74 % 0.0 in /  0 mm
03:12 -3.8 °F /  -19.9 °C -7.8 °F /  -22.1 °C 1011.1 in /  34235.8 hPa Calm   3.2 mph /  5.1 km/h 74 % 0.0 in /  0 mm
03:17 -3.9 °F /  -19.9 °C -7.8 °F /  -22.1 °C 1011.1 in /  34235.8 hPa NW 0.5 mph /  0.8 km/h 3.2 mph /  5.1 km/h 74 % 0.0 in /  0 mm
03:22 -3.9 °F /  -19.9 °C -7.8 °F /  -22.1 °C 1011.1 in /  34235.8 hPa NW 0.6 mph /  1 km/h 2.6 mph /  4.2 km/h 74 % 0.0 in /  0 mm
03:27 -3.9 °F /  -19.9 °C -7.8 °F /  -22.1 °C 1012.1 in /  34269.7 hPa NW 0.2 mph /  0.3 km/h 2.1 mph /  3.4 km/h 74 % 0.0 in /  0 mm
03:32 -4.0 °F /  -20 °C -7.8 °F /  -22.1 °C 1012.1 in /  34269.7 hPa SW 1.1 mph /  1.8 km/h 4.0 mph /  6.4 km/h 75 % 0.0 in /  0 mm
03:37 -4.0 °F /  -20 °C -7.8 °F /  -22.1 °C 1012.1 in /  34269.7 hPa WSW 2.3 mph /  3.7 km/h 4.0 mph /  6.4 km/h 75 % 0.0 in /  0 mm
03:42 -4.0 °F /  -20 °C -7.8 °F /  -22.1 °C 1011.1 in /  34235.8 hPa NW 2.9 mph /  4.7 km/h 4.7 mph /  7.6 km/h 75 % 0.0 in /  0 mm
03:47 -4.0 °F /  -20 °C -7.8 °F /  -22.1 °C 1011.1 in /  34235.8 hPa NNW 2.4 mph /  3.9 km/h 4.7 mph /  7.6 km/h 75 % 0.0 in /  0 mm
03:52 -4.1 °F /  -20.1 °C -7.9 °F /  -22.2 °C 1011.1 in /  34235.8 hPa NW 1.8 mph /  2.9 km/h 3.2 mph /  5.1 km/h 75 % 0.0 in /  0 mm
03:57 -4.1 °F /  -20.1 °C -7.9 °F /  -22.2 °C 1010.0 in /  34198.6 hPa NW 1.3 mph /  2.1 km/h 4.0 mph /  6.4 km/h 75 % 0.0 in /  0 mm
04:02 -4.1 °F /  -20.1 °C -7.7 °F /  -22.1 °C 1010.0 in /  34198.6 hPa WNW 0.5 mph /  0.8 km/h 4.0 mph /  6.4 km/h 76 % 0.0 in /  0 mm
04:07 -4.2 °F /  -20.1 °C -7.8 °F /  -22.1 °C 1010.0 in /  34198.6 hPa SSE 0.2 mph /  0.3 km/h 2.1 mph /  3.4 km/h 76 % 0.0 in /  0 mm
04:12 -4.2 °F /  -20.1 °C -7.8 °F /  -22.1 °C 1011.1 in /  34235.8 hPa SSE 0.2 mph /  0.3 km/h 2.1 mph /  3.4 km/h 76 % 0.0 in /  0 mm
04:17 -4.2 °F /  -20.1 °C -7.8 °F /  -22.1 °C 1011.1 in /  34235.8 hPa Calm   4.0 mph /  6.4 km/h 76 % 0.0 in /  0 mm
04:22 -4.3 °F /  -20.2 °C -7.9 °F /  -22.2 °C 1011.1 in /  34235.8 hPa NNW 0.6 mph /  1 km/h 4.0 mph /  6.4 km/h 76 % 0.0 in /  0 mm
04:27 -4.3 °F /  -20.2 °C -7.9 °F /  -22.2 °C 1011.1 in /  34235.8 hPa NW 1.0 mph /  1.6 km/h 2.6 mph /  4.2 km/h 76 % 0.0 in /  0 mm
04:32 -4.4 °F /  -20.2 °C -8.0 °F /  -22.2 °C 1011.1 in /  34235.8 hPa NW 1.3 mph /  2.1 km/h 4.0 mph /  6.4 km/h 76 % 0.0 in /  0 mm
04:37 -4.4 °F /  -20.2 °C -8.0 °F /  -22.2 °C 1011.1 in /  34235.8 hPa West 2.1 mph /  3.4 km/h 5.0 mph /  8 km/h 76 % 0.0 in /  0 mm
04:42 -4.5 °F /  -20.3 °C -8.1 °F /  -22.3 °C 1011.1 in /  34235.8 hPa West 2.7 mph /  4.3 km/h 5.8 mph /  9.3 km/h 76 % 0.0 in /  0 mm
04:47 -4.5 °F /  -20.3 °C -7.9 °F /  -22.2 °C 1011.1 in /  34235.8 hPa West 2.4 mph /  3.9 km/h 5.8 mph /  9.3 km/h 77 % 0.0 in /  0 mm
04:52 -4.5 °F /  -20.3 °C -7.9 °F /  -22.2 °C 1011.1 in /  34235.8 hPa WNW 1.8 mph /  2.9 km/h 4.7 mph /  7.6 km/h 77 % 0.0 in /  0 mm
04:57 -4.5 °F /  -20.3 °C -7.9 °F /  -22.2 °C 1010.0 in /  34198.6 hPa WNW 1.6 mph /  2.6 km/h 4.7 mph /  7.6 km/h 77 % 0.0 in /  0 mm
05:03 -4.5 °F /  -20.3 °C -7.9 °F /  -22.2 °C 1010.0 in /  34198.6 hPa WNW 1.4 mph /  2.3 km/h 4.3 mph /  6.9 km/h 77 % 0.0 in /  0 mm
05:08 -4.5 °F /  -20.3 °C -7.9 °F /  -22.2 °C 1010.0 in /  34198.6 hPa WSW 1.0 mph /  1.6 km/h 3.5 mph /  5.6 km/h 77 % 0.0 in /  0 mm
05:13 -4.5 °F /  -20.3 °C -7.9 °F /  -22.2 °C 1011.1 in /  34235.8 hPa WNW 0.3 mph /  0.5 km/h 2.1 mph /  3.4 km/h 77 % 0.0 in /  0 mm
05:18 -4.6 °F /  -20.3 °C -8.0 °F /  -22.2 °C 1011.1 in /  34235.8 hPa NW 0.8 mph /  1.3 km/h 5.5 mph /  8.9 km/h 77 % 0.0 in /  0 mm
05:23 -4.6 °F /  -20.3 °C -8.0 °F /  -22.2 °C 1011.1 in /  34235.8 hPa NNW 1.6 mph /  2.6 km/h 5.5 mph /  8.9 km/h 77 % 0.0 in /  0 mm
05:28 -4.6 °F /  -20.3 °C -7.8 °F /  -22.1 °C 1011.1 in /  34235.8 hPa North 1.0 mph /  1.6 km/h 5.5 mph /  8.9 km/h 78 % 0.0 in /  0 mm
05:33 -4.7 °F /  -20.4 °C -7.9 °F /  -22.2 °C 1011.1 in /  34235.8 hPa Calm   2.6 mph /  4.2 km/h 78 % 0.0 in /  0 mm
05:38 -4.7 °F /  -20.4 °C -7.9 °F /  -22.2 °C 1011.1 in /  34235.8 hPa Calm   2.6 mph /  4.2 km/h 78 % 0.0 in /  0 mm
05:43 -4.7 °F /  -20.4 °C -7.9 °F /  -22.2 °C 1012.1 in /  34269.7 hPa NNW 0.5 mph /  0.8 km/h 4.7 mph /  7.6 km/h 78 % 0.0 in /  0 mm
05:48 -4.7 °F /  -20.4 °C -7.9 °F /  -22.2 °C 1012.1 in /  34269.7 hPa NNW 0.5 mph /  0.8 km/h 4.7 mph /  7.6 km/h 78 % 0.0 in /  0 mm
05:53 -4.7 °F /  -20.4 °C -7.9 °F /  -22.2 °C 1012.1 in /  34269.7 hPa Calm   3.2 mph /  5.1 km/h 78 % 0.0 in /  0 mm
05:58 -4.8 °F /  -20.4 °C -8.1 °F /  -22.3 °C 1011.1 in /  34235.8 hPa SSE 0.3 mph /  0.5 km/h 5.0 mph /  8 km/h 78 % 0.0 in /  0 mm
06:03 -4.7 °F /  -20.4 °C -7.9 °F /  -22.2 °C 1011.1 in /  34235.8 hPa SSW 2.3 mph /  3.7 km/h 5.0 mph /  8 km/h 78 % 0.0 in /  0 mm
06:08 -4.7 °F /  -20.4 °C -7.9 °F /  -22.2 °C 1011.1 in /  34235.8 hPa SW 2.6 mph /  4.2 km/h 4.7 mph /  7.6 km/h 78 % 0.0 in /  0 mm
06:14 -4.8 °F /  -20.4 °C -7.9 °F /  -22.2 °C 1011.1 in /  34235.8 hPa NW 1.4 mph /  2.3 km/h 4.0 mph /  6.4 km/h 79 % 0.0 in /  0 mm
06:19 -4.8 °F /  -20.4 °C -7.9 °F /  -22.2 °C 1011.1 in /  34235.8 hPa NW 1.9 mph /  3.1 km/h 4.7 mph /  7.6 km/h 79 % 0.0 in /  0 mm
06:24 -4.8 °F /  -20.4 °C -7.9 °F /  -22.2 °C 1011.1 in /  34235.8 hPa NW 1.9 mph /  3.1 km/h 4.7 mph /  7.6 km/h 79 % 0.0 in /  0 mm
06:29 -4.8 °F /  -20.4 °C -7.9 °F /  -22.2 °C 1011.1 in /  34235.8 hPa WNW 1.4 mph /  2.3 km/h 4.7 mph /  7.6 km/h 79 % 0.0 in /  0 mm
06:34 -4.8 °F /  -20.4 °C -7.9 °F /  -22.2 °C 1011.1 in /  34235.8 hPa WNW 0.6 mph /  1 km/h 4.7 mph /  7.6 km/h 79 % 0.0 in /  0 mm
06:39 -4.8 °F /  -20.4 °C -7.9 °F /  -22.2 °C 1011.1 in /  34235.8 hPa NW 0.2 mph /  0.3 km/h 2.1 mph /  3.4 km/h 79 % 0.0 in /  0 mm
06:44 -4.8 °F /  -20.4 °C -7.9 °F /  -22.2 °C 1011.1 in /  34235.8 hPa West 1.1 mph /  1.8 km/h 3.5 mph /  5.6 km/h 79 % 0.0 in /  0 mm
06:49 -4.8 °F /  -20.4 °C -7.9 °F /  -22.2 °C 1011.1 in /  34235.8 hPa West 1.1 mph /  1.8 km/h 3.5 mph /  5.6 km/h 79 % 0.0 in /  0 mm
06:54 -4.8 °F /  -20.4 °C -7.9 °F /  -22.2 °C 1011.1 in /  34235.8 hPa North 0.2 mph /  0.3 km/h   79 % 0.0 in /  0 mm
06:59 -4.8 °F /  -20.4 °C -7.9 °F /  -22.2 °C 1011.1 in /  34235.8 hPa NNW 1.0 mph /  1.6 km/h 3.5 mph /  5.6 km/h 79 % 0.0 in /  0 mm
07:04 -4.8 °F /  -20.4 °C -7.7 °F /  -22.1 °C 1011.1 in /  34235.8 hPa NNW 1.0 mph /  1.6 km/h 3.5 mph /  5.6 km/h 80 % 0.0 in /  0 mm
07:09 -4.9 °F /  -20.5 °C -7.8 °F /  -22.1 °C 1011.1 in /  34235.8 hPa WNW 0.2 mph /  0.3 km/h 2.6 mph /  4.2 km/h 80 % 0.0 in /  0 mm
07:14 -4.9 °F /  -20.5 °C -7.8 °F /  -22.1 °C 1012.1 in /  34269.7 hPa SSW 0.5 mph /  0.8 km/h 3.2 mph /  5.1 km/h 80 % 0.0 in /  0 mm
07:19 -4.9 °F /  -20.5 °C -7.8 °F /  -22.1 °C 1012.1 in /  34269.7 hPa SSE 0.5 mph /  0.8 km/h 3.2 mph /  5.1 km/h 80 % 0.0 in /  0 mm
07:24 -4.9 °F /  -20.5 °C -7.8 °F /  -22.1 °C 1012.1 in /  34269.7 hPa SSE 0.5 mph /  0.8 km/h 2.6 mph /  4.2 km/h 80 % 0.0 in /  0 mm
07:29 -4.9 °F /  -20.5 °C -7.8 °F /  -22.1 °C 1011.1 in /  34235.8 hPa Calm     80 % 0.0 in /  0 mm
07:34 -5.0 °F /  -20.6 °C -7.9 °F /  -22.2 °C 1011.1 in /  34235.8 hPa Calm     80 % 0.0 in /  0 mm
07:39 -4.9 °F /  -20.5 °C -7.8 °F /  -22.1 °C 1011.1 in /  34235.8 hPa Calm     80 % 0.0 in /  0 mm
07:44 -5.0 °F /  -20.6 °C -7.8 °F /  -22.1 °C 1012.1 in /  34269.7 hPa Calm     81 % 0.0 in /  0 mm
07:49 -5.0 °F /  -20.6 °C -7.8 °F /  -22.1 °C 1012.1 in /  34269.7 hPa Calm     81 % 0.0 in /  0 mm
07:54 -5.0 °F /  -20.6 °C -7.8 °F /  -22.1 °C 1012.1 in /  34269.7 hPa Calm     81 % 0.0 in /  0 mm
07:59 -5.0 °F /  -20.6 °C -7.8 °F /  -22.1 °C 1012.1 in /  34269.7 hPa Calm     81 % 0.0 in /  0 mm
08:04 -5.0 °F /  -20.6 °C -7.8 °F /  -22.1 °C 1012.1 in /  34269.7 hPa Calm     81 % 0.0 in /  0 mm
08:09 -4.9 °F /  -20.5 °C -7.7 °F /  -22.1 °C 1012.1 in /  34269.7 hPa Calm     81 % 0.0 in /  0 mm
08:14 -4.9 °F /  -20.5 °C -7.7 °F /  -22.1 °C 1013.1 in /  34303.6 hPa Calm     81 % 0.0 in /  0 mm
08:19 -4.9 °F /  -20.5 °C -7.7 °F /  -22.1 °C 1013.1 in /  34303.6 hPa Calm     81 % 0.0 in /  0 mm
08:24 -4.9 °F /  -20.5 °C -7.7 °F /  -22.1 °C 1013.1 in /  34303.6 hPa Calm     81 % 0.0 in /  0 mm
08:29 -4.9 °F /  -20.5 °C -7.7 °F /  -22.1 °C 1013.1 in /  34303.6 hPa Calm     81 % 0.0 in /  0 mm
08:34 -4.9 °F /  -20.5 °C -7.7 °F /  -22.1 °C 1013.1 in /  34303.6 hPa Calm     81 % 0.0 in /  0 mm
08:39 -4.7 °F /  -20.4 °C -7.4 °F /  -21.9 °C 1013.1 in /  34303.6 hPa Calm     81 % 0.0 in /  0 mm
08:44 -4.6 °F /  -20.3 °C -7.4 °F /  -21.9 °C 1013.1 in /  34303.6 hPa Calm     81 % 0.0 in /  0 mm
08:49 -4.5 °F /  -20.3 °C -7.1 °F /  -21.7 °C 1013.1 in /  34303.6 hPa Calm     82 % 0.0 in /  0 mm
08:54 -4.3 °F /  -20.2 °C -6.9 °F /  -21.6 °C 1013.1 in /  34303.6 hPa Calm     82 % 0.0 in /  0 mm
08:59 -4.2 °F /  -20.1 °C -6.8 °F /  -21.6 °C 1013.1 in /  34303.6 hPa South 0.3 mph /  0.5 km/h 3.2 mph /  5.1 km/h 82 % 0.0 in /  0 mm
09:04 -3.9 °F /  -19.9 °C -6.5 °F /  -21.4 °C 1013.1 in /  34303.6 hPa SSW 1.4 mph /  2.3 km/h 4.0 mph /  6.4 km/h 82 % 0.0 in /  0 mm
09:09 -3.7 °F /  -19.8 °C -6.3 °F /  -21.3 °C 1013.1 in /  34303.6 hPa SSW 2.6 mph /  4.2 km/h 5.0 mph /  8 km/h 82 % 0.0 in /  0 mm
09:14 -3.5 °F /  -19.7 °C -5.9 °F /  -21.1 °C 1013.1 in /  34303.6 hPa SW 2.6 mph /  4.2 km/h 5.0 mph /  8 km/h 83 % 0.0 in /  0 mm
09:19 -3.3 °F /  -19.6 °C -5.8 °F /  -21 °C 1013.1 in /  34303.6 hPa SW 1.3 mph /  2.1 km/h 4.0 mph /  6.4 km/h 83 % 0.0 in /  0 mm
09:24 -3.1 °F /  -19.5 °C -5.6 °F /  -20.9 °C 1013.1 in /  34303.6 hPa SSE 0.2 mph /  0.3 km/h 2.6 mph /  4.2 km/h 83 % 0.0 in /  0 mm
09:29 -2.9 °F /  -19.4 °C -5.4 °F /  -20.8 °C 1013.1 in /  34303.6 hPa SE 0.3 mph /  0.5 km/h 3.5 mph /  5.6 km/h 83 % 0.0 in /  0 mm
09:34 -2.7 °F /  -19.3 °C -5.1 °F /  -20.6 °C 1013.1 in /  34303.6 hPa SSE 1.3 mph /  2.1 km/h 4.0 mph /  6.4 km/h 84 % 0.0 in /  0 mm
09:39 -2.5 °F /  -19.2 °C -4.8 °F /  -20.4 °C 1013.1 in /  34303.6 hPa SSE 1.0 mph /  1.6 km/h 4.0 mph /  6.4 km/h 84 % 0.0 in /  0 mm
09:44 -2.4 °F /  -19.1 °C -4.7 °F /  -20.4 °C 1013.1 in /  34303.6 hPa Calm     84 % 0.0 in /  0 mm
09:49 -2.1 °F /  -18.9 °C -4.4 °F /  -20.2 °C 1013.1 in /  34303.6 hPa SW 0.2 mph /  0.3 km/h 2.1 mph /  3.4 km/h 84 % 0.0 in /  0 mm
09:54 -1.9 °F /  -18.8 °C -4.2 °F /  -20.1 °C 1013.1 in /  34303.6 hPa SW 0.2 mph /  0.3 km/h 2.1 mph /  3.4 km/h 84 % 0.0 in /  0 mm
09:59 -1.8 °F /  -18.8 °C -4.2 °F /  -20.1 °C 1013.1 in /  34303.6 hPa SSE 0.5 mph /  0.8 km/h 3.2 mph /  5.1 km/h 84 % 0.0 in /  0 mm
10:04 -1.5 °F /  -18.6 °C -3.7 °F /  -19.8 °C 1013.1 in /  34303.6 hPa SSE 0.5 mph /  0.8 km/h 3.2 mph /  5.1 km/h 85 % 0.0 in /  0 mm
10:09 -1.2 °F /  -18.4 °C -3.4 °F /  -19.7 °C 1013.1 in /  34303.6 hPa SE 1.1 mph /  1.8 km/h 4.3 mph /  6.9 km/h 85 % 0.0 in /  0 mm
10:14 -0.9 °F /  -18.3 °C -3.1 °F /  -19.5 °C 1013.1 in /  34303.6 hPa SE 1.1 mph /  1.8 km/h 4.3 mph /  6.9 km/h 85 % 0.0 in /  0 mm
10:19 -0.4 °F /  -18 °C -2.6 °F /  -19.2 °C 1013.1 in /  34303.6 hPa SSE 0.5 mph /  0.8 km/h 3.2 mph /  5.1 km/h 85 % 0.0 in /  0 mm
10:24 0.1 °F /  -17.7 °C -1.9 °F /  -18.8 °C 1013.1 in /  34303.6 hPa SSW 1.4 mph /  2.3 km/h 4.3 mph /  6.9 km/h 86 % 0.0 in /  0 mm
10:29 0.5 °F /  -17.5 °C -1.6 °F /  -18.7 °C 1013.1 in /  34303.6 hPa SSW 2.7 mph /  4.3 km/h 4.7 mph /  7.6 km/h 86 % 0.0 in /  0 mm
10:34 0.8 °F /  -17.3 °C -1.3 °F /  -18.5 °C 1013.1 in /  34303.6 hPa South 3.1 mph /  5 km/h 5.0 mph /  8 km/h 86 % 0.0 in /  0 mm
10:39 1.1 °F /  -17.2 °C -1.0 °F /  -18.3 °C 1013.1 in /  34303.6 hPa SSE 2.4 mph /  3.9 km/h 5.0 mph /  8 km/h 86 % 0.0 in /  0 mm
10:44 1.3 °F /  -17.1 °C -0.8 °F /  -18.2 °C 1013.1 in /  34303.6 hPa SSE 1.1 mph /  1.8 km/h 2.6 mph /  4.2 km/h 86 % 0.0 in /  0 mm
10:49 1.5 °F /  -16.9 °C -0.6 °F /  -18.1 °C 1013.1 in /  34303.6 hPa South 0.3 mph /  0.5 km/h 2.6 mph /  4.2 km/h 86 % 0.0 in /  0 mm
10:54 1.7 °F /  -16.8 °C -0.4 °F /  -18 °C 1013.1 in /  34303.6 hPa Calm     86 % 0.0 in /  0 mm
10:59 1.9 °F /  -16.7 °C -0.2 °F /  -17.9 °C 1013.1 in /  34303.6 hPa South 0.5 mph /  0.8 km/h 3.5 mph /  5.6 km/h 86 % 0.0 in /  0 mm
11:04 2.1 °F /  -16.6 °C 0.0 °F /  -17.8 °C 1013.1 in /  34303.6 hPa South 0.8 mph /  1.3 km/h 3.5 mph /  5.6 km/h 86 % 0.0 in /  0 mm
11:09 2.2 °F /  -16.6 °C 0.1 °F /  -17.7 °C 1013.1 in /  34303.6 hPa South 0.2 mph /  0.3 km/h 2.1 mph /  3.4 km/h 86 % 0.0 in /  0 mm
11:14 2.4 °F /  -16.4 °C 0.3 °F /  -17.6 °C 1012.1 in /  34269.7 hPa Calm   2.1 mph /  3.4 km/h 86 % 0.0 in /  0 mm
11:19 2.6 °F /  -16.3 °C 0.5 °F /  -17.5 °C 1012.1 in /  34269.7 hPa East 0.8 mph /  1.3 km/h 4.0 mph /  6.4 km/h 86 % 0.0 in /  0 mm
11:24 2.8 °F /  -16.2 °C 0.7 °F /  -17.4 °C 1012.1 in /  34269.7 hPa East 2.4 mph /  3.9 km/h 5.5 mph /  8.9 km/h 86 % 0.0 in /  0 mm
11:29 3.3 °F /  -15.9 °C 1.0 °F /  -17.2 °C 1011.1 in /  34235.8 hPa ESE 3.9 mph /  6.3 km/h 5.8 mph /  9.3 km/h 85 % 0.0 in /  0 mm
11:34 3.7 °F /  -15.7 °C 1.4 °F /  -17 °C 1011.1 in /  34235.8 hPa SE 4.5 mph /  7.2 km/h 6.9 mph /  11.1 km/h 85 % 0.0 in /  0 mm
11:39 4.2 °F /  -15.4 °C 1.9 °F /  -16.7 °C 1011.1 in /  34235.8 hPa SE 4.3 mph /  6.9 km/h 6.9 mph /  11.1 km/h 85 % 0.0 in /  0 mm
11:44 4.6 °F /  -15.2 °C 2.3 °F /  -16.5 °C 1011.1 in /  34235.8 hPa SE 4.0 mph /  6.4 km/h 5.8 mph /  9.3 km/h 85 % 0.0 in /  0 mm
11:49 5.2 °F /  -14.9 °C 2.7 °F /  -16.3 °C 1011.1 in /  34235.8 hPa SE 4.2 mph /  6.8 km/h 6.1 mph /  9.8 km/h 84 % 0.0 in /  0 mm
11:54 5.5 °F /  -14.7 °C 3.0 °F /  -16.1 °C 1011.1 in /  34235.8 hPa SSE 4.8 mph /  7.7 km/h 7.6 mph /  12.2 km/h 84 % 0.0 in /  0 mm
11:59 5.8 °F /  -14.6 °C 3.1 °F /  -16.1 °C 1011.1 in /  34235.8 hPa SSE 6.3 mph /  10.1 km/h 9.7 mph /  15.6 km/h 83 % 0.0 in /  0 mm
12:04 6.0 °F /  -14.4 °C 3.2 °F /  -16 °C 1011.1 in /  34235.8 hPa SSE 6.8 mph /  10.9 km/h 9.7 mph /  15.6 km/h 82 % 0.0 in /  0 mm
12:09 6.3 °F /  -14.3 °C 3.4 °F /  -15.9 °C 1011.1 in /  34235.8 hPa SSE 6.3 mph /  10.1 km/h 9.3 mph /  15 km/h 82 % 0.0 in /  0 mm
12:14 6.5 °F /  -14.2 °C 3.5 °F /  -15.8 °C 1011.1 in /  34235.8 hPa SSE 5.8 mph /  9.3 km/h 9.0 mph /  14.5 km/h 81 % 0.0 in /  0 mm
12:19 6.7 °F /  -14.1 °C 3.5 °F /  -15.8 °C 1011.1 in /  34235.8 hPa SSE 6.6 mph /  10.6 km/h 13.0 mph /  20.9 km/h 80 % 0.0 in /  0 mm
12:24 7.1 °F /  -13.8 °C 3.3 °F /  -15.9 °C 1011.1 in /  34235.8 hPa South 7.7 mph /  12.4 km/h 15.4 mph /  24.8 km/h 77 % 0.0 in /  0 mm
12:29 7.4 °F /  -13.7 °C 3.4 °F /  -15.9 °C 1010.0 in /  34198.6 hPa South 8.8 mph /  14.2 km/h 15.4 mph /  24.8 km/h 76 % 0.0 in /  0 mm
12:34 7.7 °F /  -13.5 °C 3.3 °F /  -15.9 °C 1010.0 in /  34198.6 hPa SSW 8.7 mph /  14 km/h 15.4 mph /  24.8 km/h 74 % 0.0 in /  0 mm
12:39 7.9 °F /  -13.4 °C 3.2 °F /  -16 °C 1010.0 in /  34198.6 hPa SSW 8.0 mph /  12.9 km/h 11.9 mph /  19.2 km/h 72 % 0.0 in /  0 mm
12:44 8.1 °F /  -13.3 °C 2.9 °F /  -16.2 °C 1009.0 in /  34164.7 hPa SSW 7.7 mph /  12.4 km/h 12.2 mph /  19.6 km/h 70 % 0.0 in /  0 mm
12:49 8.3 °F /  -13.2 °C 2.5 °F /  -16.4 °C 1009.0 in /  34164.7 hPa SSW 6.9 mph /  11.1 km/h 12.2 mph /  19.6 km/h 67 % 0.0 in /  0 mm
12:54 8.4 °F /  -13.1 °C 2.2 °F /  -16.6 °C 1009.0 in /  34164.7 hPa SSW 6.4 mph /  10.3 km/h 9.3 mph /  15 km/h 65 % 0.0 in /  0 mm
12:59 8.3 °F /  -13.2 °C 1.7 °F /  -16.8 °C 1009.0 in /  34164.7 hPa South 7.1 mph /  11.4 km/h 10.5 mph /  16.9 km/h 63 % 0.0 in /  0 mm
13:04 8.2 °F /  -13.2 °C 0.9 °F /  -17.3 °C 1009.0 in /  34164.7 hPa South 6.1 mph /  9.8 km/h 10.5 mph /  16.9 km/h 60 % 0.0 in /  0 mm
13:09 8.3 °F /  -13.2 °C 0.7 °F /  -17.4 °C 1009.0 in /  34164.7 hPa SW 5.6 mph /  9 km/h 13.7 mph /  22 km/h 59 % 0.0 in /  0 mm
13:14 8.4 °F /  -13.1 °C 0.4 °F /  -17.6 °C 1008.0 in /  34130.9 hPa SW 6.0 mph /  9.7 km/h 13.7 mph /  22 km/h 57 % 0.0 in /  0 mm
13:19 8.5 °F /  -13.1 °C -0.1 °F /  -17.8 °C 1008.0 in /  34130.9 hPa SW 6.0 mph /  9.7 km/h 10.5 mph /  16.9 km/h 55 % 0.0 in /  0 mm
13:24 8.5 °F /  -13.1 °C -0.6 °F /  -18.1 °C 1008.0 in /  34130.9 hPa SSW 5.8 mph /  9.3 km/h 10.5 mph /  16.9 km/h 53 % 0.0 in /  0 mm
13:29 8.5 °F /  -13.1 °C -0.8 °F /  -18.2 °C 1009.0 in /  34164.7 hPa South 5.6 mph /  9 km/h 10.5 mph /  16.9 km/h 52 % 0.0 in /  0 mm
13:34 8.4 °F /  -13.1 °C -1.2 °F /  -18.4 °C 1009.0 in /  34164.7 hPa SE 5.6 mph /  9 km/h 10.5 mph /  16.9 km/h 51 % 0.0 in /  0 mm
13:39 8.3 °F /  -13.2 °C -1.6 °F /  -18.7 °C 1009.0 in /  34164.7 hPa SSE 3.9 mph /  6.3 km/h 6.9 mph /  11.1 km/h 50 % 0.0 in /  0 mm
13:44 8.4 °F /  -13.1 °C -1.7 °F /  -18.7 °C 1009.0 in /  34164.7 hPa SSW 3.7 mph /  6 km/h 10.1 mph /  16.3 km/h 49 % 0.0 in /  0 mm
13:49 8.5 °F /  -13.1 °C -1.9 °F /  -18.8 °C 1009.0 in /  34164.7 hPa SSW 6.0 mph /  9.7 km/h 14.0 mph /  22.5 km/h 48 % 0.0 in /  0 mm
13:54 8.7 °F /  -12.9 °C -2.0 °F /  -18.9 °C 1009.0 in /  34164.7 hPa SW 6.0 mph /  9.7 km/h 14.0 mph /  22.5 km/h 47 % 0.0 in /  0 mm
13:59 8.7 °F /  -12.9 °C -2.3 °F /  -19.1 °C 1008.0 in /  34130.9 hPa West 4.2 mph /  6.8 km/h 8.7 mph /  14 km/h 46 % 0.0 in /  0 mm
14:04 8.9 °F /  -12.8 °C -2.7 °F /  -19.3 °C 1008.0 in /  34130.9 hPa WSW 4.2 mph /  6.8 km/h 9.0 mph /  14.5 km/h 44 % 0.0 in /  0 mm
14:09 9.1 °F /  -12.7 °C -2.8 °F /  -19.3 °C 1008.0 in /  34130.9 hPa WSW 4.3 mph /  6.9 km/h 9.0 mph /  14.5 km/h 43 % 0.0 in /  0 mm
14:14 9.3 °F /  -12.6 °C -3.0 °F /  -19.4 °C 1008.0 in /  34130.9 hPa West 4.7 mph /  7.6 km/h 9.0 mph /  14.5 km/h 42 % 0.0 in /  0 mm
14:19 9.4 °F /  -12.6 °C -3.6 °F /  -19.8 °C 1008.0 in /  34130.9 hPa West 6.0 mph /  9.7 km/h 13.0 mph /  20.9 km/h 40 % 0.0 in /  0 mm
14:24 9.6 °F /  -12.4 °C -3.3 °F /  -19.6 °C 1008.0 in /  34130.9 hPa West 6.3 mph /  10.1 km/h 13.0 mph /  20.9 km/h 40 % 0.0 in /  0 mm
14:29 9.6 °F /  -12.4 °C -3.7 °F /  -19.8 °C 1008.0 in /  34130.9 hPa West 5.3 mph /  8.5 km/h 12.6 mph /  20.3 km/h 39 % 0.0 in /  0 mm
14:34 9.7 °F /  -12.4 °C -3.9 °F /  -19.9 °C 1008.0 in /  34130.9 hPa WSW 5.6 mph /  9 km/h 14.0 mph /  22.5 km/h 38 % 0.0 in /  0 mm
14:39 9.6 °F /  -12.4 °C -4.4 °F /  -20.2 °C 1008.0 in /  34130.9 hPa WSW 6.9 mph /  11.1 km/h 16.9 mph /  27.2 km/h 37 % 0.0 in /  0 mm
14:44 9.8 °F /  -12.3 °C -4.6 °F /  -20.3 °C 1008.0 in /  34130.9 hPa West 6.9 mph /  11.1 km/h 16.9 mph /  27.2 km/h 36 % 0.0 in /  0 mm
14:49 9.9 °F /  -12.3 °C -5.3 °F /  -20.7 °C 1008.0 in /  34130.9 hPa West 6.6 mph /  10.6 km/h 13.0 mph /  20.9 km/h 34 % 0.0 in /  0 mm
14:54 9.9 °F /  -12.3 °C -5.7 °F /  -20.9 °C 1008.0 in /  34130.9 hPa West 6.4 mph /  10.3 km/h 13.0 mph /  20.9 km/h 33 % 0.0 in /  0 mm
14:59 10.0 °F /  -12.2 °C -6.4 °F /  -21.3 °C 1007.0 in /  34097 hPa WSW 6.6 mph /  10.6 km/h 13.0 mph /  20.9 km/h 31 % 0.0 in /  0 mm
15:04 10.0 °F /  -12.2 °C -6.8 °F /  -21.6 °C 1007.0 in /  34097 hPa WSW 6.4 mph /  10.3 km/h 13.0 mph /  20.9 km/h 30 % 0.0 in /  0 mm
15:09 9.9 °F /  -12.3 °C -7.3 °F /  -21.8 °C 1007.0 in /  34097 hPa West 6.3 mph /  10.1 km/h 12.2 mph /  19.6 km/h 29 % 0.0 in /  0 mm
15:14 9.8 °F /  -12.3 °C -7.9 °F /  -22.2 °C 1007.0 in /  34097 hPa WNW 6.6 mph /  10.6 km/h 20.6 mph /  33.2 km/h 28 % 0.0 in /  0 mm
15:19 9.7 °F /  -12.4 °C -8.9 °F /  -22.7 °C 1007.0 in /  34097 hPa West 7.2 mph /  11.6 km/h 20.6 mph /  33.2 km/h 26 % 0.0 in /  0 mm
15:24 9.6 °F /  -12.4 °C -12.9 °F /  -24.9 °C 1007.0 in /  34097 hPa West 7.6 mph /  12.2 km/h 14.0 mph /  22.5 km/h 19 % 0.0 in /  0 mm
15:29 9.5 °F /  -12.5 °C -16.7 °F /  -27.1 °C 1008.0 in /  34130.9 hPa WSW 7.4 mph /  11.9 km/h 14.0 mph /  22.5 km/h 14 % 0.0 in /  0 mm
15:34 9.3 °F /  -12.6 °C -19.8 °F /  -28.8 °C 1008.0 in /  34130.9 hPa WSW 6.8 mph /  10.9 km/h 14.0 mph /  22.5 km/h 11 % 0.0 in /  0 mm
15:39 9.3 °F /  -12.6 °C -23.4 °F /  -30.8 °C 1008.0 in /  34130.9 hPa West 7.1 mph /  11.4 km/h 14.3 mph /  23 km/h 8 % 0.0 in /  0 mm
15:44 9.1 °F /  -12.7 °C -23.6 °F /  -30.9 °C 1007.0 in /  34097 hPa WSW 7.9 mph /  12.7 km/h 14.3 mph /  23 km/h 8 % 0.0 in /  0 mm
15:49 8.9 °F /  -12.8 °C -23.7 °F /  -30.9 °C 1007.0 in /  34097 hPa SW 6.8 mph /  10.9 km/h 12.2 mph /  19.6 km/h 8 % 0.0 in /  0 mm
15:54 8.8 °F /  -12.9 °C -23.8 °F /  -31 °C 1007.0 in /  34097 hPa SW 5.5 mph /  8.9 km/h 12.2 mph /  19.6 km/h 8 % 0.0 in /  0 mm
15:59 8.7 °F /  -12.9 °C -23.8 °F /  -31 °C 1007.0 in /  34097 hPa SW 5.1 mph /  8.2 km/h 12.2 mph /  19.6 km/h 8 % 0.0 in /  0 mm
16:04 8.4 °F /  -13.1 °C -24.1 °F /  -31.2 °C 1007.0 in /  34097 hPa SW 4.5 mph /  7.2 km/h 9.7 mph /  15.6 km/h 8 % 0.0 in /  0 mm
16:09 8.5 °F /  -13.1 °C -24.0 °F /  -31.1 °C 1007.0 in /  34097 hPa WSW 6.8 mph /  10.9 km/h 25.6 mph /  41.2 km/h 8 % 0.0 in /  0 mm
16:14 8.3 °F /  -13.2 °C -24.2 °F /  -31.2 °C 1007.0 in /  34097 hPa WSW 6.6 mph /  10.6 km/h 25.6 mph /  41.2 km/h 8 % 0.0 in /  0 mm
16:19 8.1 °F /  -13.3 °C -23.0 °F /  -30.6 °C 1007.0 in /  34097 hPa WSW 3.4 mph /  5.5 km/h 10.1 mph /  16.3 km/h 9 % 0.0 in /  0 mm
16:24 7.9 °F /  -13.4 °C -19.8 °F /  -28.8 °C 1007.0 in /  34097 hPa SSW 4.3 mph /  6.9 km/h 10.5 mph /  16.9 km/h 12 % 0.0 in /  0 mm
16:29 8.0 °F /  -13.3 °C -19.8 °F /  -28.8 °C 1007.0 in /  34097 hPa WSW 6.1 mph /  9.8 km/h 10.5 mph /  16.9 km/h 12 % 0.0 in /  0 mm
16:34 8.1 °F /  -13.3 °C -19.7 °F /  -28.7 °C 1007.0 in /  34097 hPa NW 5.5 mph /  8.9 km/h 12.2 mph /  19.6 km/h 12 % 0.0 in /  0 mm
16:39 8.1 °F /  -13.3 °C -19.7 °F /  -28.7 °C 1007.0 in /  34097 hPa SSW 6.1 mph /  9.8 km/h 15.4 mph /  24.8 km/h 12 % 0.0 in /  0 mm
16:44 8.0 °F /  -13.3 °C -17.9 °F /  -27.7 °C 1007.0 in /  34097 hPa SW 6.4 mph /  10.3 km/h 15.4 mph /  24.8 km/h 14 % 0.0 in /  0 mm
16:49 8.1 °F /  -13.3 °C -17.9 °F /  -27.7 °C 1007.0 in /  34097 hPa WSW 5.5 mph /  8.9 km/h 17.2 mph /  27.7 km/h 14 % 0.0 in /  0 mm
16:54 8.0 °F /  -13.3 °C -17.9 °F /  -27.7 °C 1007.0 in /  34097 hPa WSW 5.3 mph /  8.5 km/h 17.2 mph /  27.7 km/h 14 % 0.0 in /  0 mm
16:59 7.9 °F /  -13.4 °C -15.7 °F /  -26.5 °C 1007.0 in /  34097 hPa SW 4.5 mph /  7.2 km/h 10.1 mph /  16.3 km/h 17 % 0.0 in /  0 mm
17:04 7.7 °F /  -13.5 °C -15.9 °F /  -26.6 °C 1007.0 in /  34097 hPa SW 3.4 mph /  5.5 km/h 10.1 mph /  16.3 km/h 17 % 0.0 in /  0 mm
17:09 7.5 °F /  -13.6 °C -14.1 °F /  -25.6 °C 1007.0 in /  34097 hPa WSW 3.4 mph /  5.5 km/h 10.1 mph /  16.3 km/h 20 % 0.0 in /  0 mm
17:14 7.4 °F /  -13.7 °C -14.2 °F /  -25.7 °C 1006.0 in /  34063.2 hPa West 4.0 mph /  6.4 km/h 11.9 mph /  19.2 km/h 20 % 0.0 in /  0 mm
17:19 7.4 °F /  -13.7 °C -13.0 °F /  -25 °C 1006.0 in /  34063.2 hPa WSW 4.5 mph /  7.2 km/h 13.0 mph /  20.9 km/h 22 % 0.0 in /  0 mm
17:24 7.5 °F /  -13.6 °C -14.1 °F /  -25.6 °C 1006.0 in /  34063.2 hPa WSW 6.3 mph /  10.1 km/h 13.0 mph /  20.9 km/h 20 % 0.0 in /  0 mm
17:29 7.7 °F /  -13.5 °C -15.9 °F /  -26.6 °C 1007.0 in /  34097 hPa WSW 6.4 mph /  10.3 km/h 12.6 mph /  20.3 km/h 17 % 0.0 in /  0 mm
17:34 7.8 °F /  -13.4 °C -15.8 °F /  -26.6 °C 1007.0 in /  34097 hPa WSW 6.4 mph /  10.3 km/h 11.1 mph /  17.9 km/h 17 % 0.0 in /  0 mm
17:39 7.7 °F /  -13.5 °C -15.9 °F /  -26.6 °C 1007.0 in /  34097 hPa SW 5.3 mph /  8.5 km/h 11.1 mph /  17.9 km/h 17 % 0.0 in /  0 mm
17:44 7.5 °F /  -13.6 °C -17.6 °F /  -27.6 °C 1007.0 in /  34097 hPa SW 4.2 mph /  6.8 km/h 10.5 mph /  16.9 km/h 15 % 0.0 in /  0 mm
17:49 7.5 °F /  -13.6 °C -16.1 °F /  -26.7 °C 1007.0 in /  34097 hPa SW 4.3 mph /  6.9 km/h 10.5 mph /  16.9 km/h 17 % 0.0 in /  0 mm
17:54 7.4 °F /  -13.7 °C -16.1 °F /  -26.7 °C 1007.0 in /  34097 hPa West 5.1 mph /  8.2 km/h 10.5 mph /  16.9 km/h 17 % 0.0 in /  0 mm
17:59 7.4 °F /  -13.7 °C -16.1 °F /  -26.7 °C 1007.0 in /  34097 hPa West 5.8 mph /  9.3 km/h 12.2 mph /  19.6 km/h 17 % 0.0 in /  0 mm
18:04 7.2 °F /  -13.8 °C -14.3 °F /  -25.7 °C 1007.0 in /  34097 hPa West 4.3 mph /  6.9 km/h 12.2 mph /  19.6 km/h 20 % 0.0 in /  0 mm
18:09 7.1 °F /  -13.8 °C -14.4 °F /  -25.8 °C 1007.0 in /  34097 hPa West 3.9 mph /  6.3 km/h 7.6 mph /  12.2 km/h 20 % 0.0 in /  0 mm
18:14 6.9 °F /  -13.9 °C -12.8 °F /  -24.9 °C 1007.0 in /  34097 hPa West 4.5 mph /  7.2 km/h 7.6 mph /  12.2 km/h 23 % 0.0 in /  0 mm
18:19 6.6 °F /  -14.1 °C -12.1 °F /  -24.5 °C 1007.0 in /  34097 hPa West 3.4 mph /  5.5 km/h 6.9 mph /  11.1 km/h 25 % 0.0 in /  0 mm
18:24 6.5 °F /  -14.2 °C -10.7 °F /  -23.7 °C 1007.0 in /  34097 hPa WSW 2.4 mph /  3.9 km/h 5.5 mph /  8.9 km/h 28 % 0.0 in /  0 mm
18:29 6.4 °F /  -14.2 °C -10.8 °F /  -23.8 °C 1007.0 in /  34097 hPa WSW 3.1 mph /  5 km/h 9.7 mph /  15.6 km/h 28 % 0.0 in /  0 mm
18:34 6.5 °F /  -14.2 °C -10.7 °F /  -23.7 °C 1007.0 in /  34097 hPa WSW 3.7 mph /  6 km/h 9.7 mph /  15.6 km/h 28 % 0.0 in /  0 mm
18:39 6.3 °F /  -14.3 °C -10.4 °F /  -23.6 °C 1007.0 in /  34097 hPa WSW 2.7 mph /  4.3 km/h 13.0 mph /  20.9 km/h 29 % 0.0 in /  0 mm
18:44 6.1 °F /  -14.4 °C -10.7 °F /  -23.7 °C 1008.0 in /  34130.9 hPa West 3.2 mph /  5.1 km/h 13.0 mph /  20.9 km/h 29 % 0.0 in /  0 mm
18:49 5.8 °F /  -14.6 °C -10.9 °F /  -23.8 °C 1008.0 in /  34130.9 hPa West 4.0 mph /  6.4 km/h 9.3 mph /  15 km/h 29 % 0.0 in /  0 mm
18:54 5.4 °F /  -14.8 °C -10.8 °F /  -23.8 °C 1008.0 in /  34130.9 hPa West 3.5 mph /  5.6 km/h 9.0 mph /  14.5 km/h 30 % 0.0 in /  0 mm
18:59 4.8 °F /  -15.1 °C -10.9 °F /  -23.8 °C 1007.0 in /  34097 hPa WNW 3.5 mph /  5.6 km/h 9.0 mph /  14.5 km/h 31 % 0.0 in /  0 mm
19:04 4.2 °F /  -15.4 °C -10.7 °F /  -23.7 °C 1007.0 in /  34097 hPa NW 2.7 mph /  4.3 km/h 5.5 mph /  8.9 km/h 33 % 0.0 in /  0 mm
19:09 3.8 °F /  -15.7 °C -10.7 °F /  -23.7 °C 1007.0 in /  34097 hPa NW 1.8 mph /  2.9 km/h 5.5 mph /  8.9 km/h 34 % 0.0 in /  0 mm
19:14 3.4 °F /  -15.9 °C -10.3 °F /  -23.5 °C 1007.0 in /  34097 hPa NW 1.6 mph /  2.6 km/h 5.5 mph /  8.9 km/h 36 % 0.0 in /  0 mm
19:19 3.0 °F /  -16.1 °C -9.9 °F /  -23.3 °C 1007.0 in /  34097 hPa NNW 1.9 mph /  3.1 km/h 4.7 mph /  7.6 km/h 38 % 0.0 in /  0 mm
19:24 2.7 °F /  -16.3 °C -9.9 °F /  -23.3 °C 1007.0 in /  34097 hPa NNW 2.9 mph /  4.7 km/h 6.1 mph /  9.8 km/h 39 % 0.0 in /  0 mm
19:29 2.4 °F /  -16.4 °C -9.8 °F /  -23.2 °C 1007.0 in /  34097 hPa NNW 2.9 mph /  4.7 km/h 6.1 mph /  9.8 km/h 40 % 0.0 in /  0 mm
19:34 2.1 °F /  -16.6 °C -10.1 °F /  -23.4 °C 1007.0 in /  34097 hPa NW 1.9 mph /  3.1 km/h 4.7 mph /  7.6 km/h 40 % 0.0 in /  0 mm
19:39 1.9 °F /  -16.7 °C -10.0 °F /  -23.3 °C 1007.0 in /  34097 hPa NW 1.3 mph /  2.1 km/h 4.3 mph /  6.9 km/h 41 % 0.0 in /  0 mm
19:44 1.7 °F /  -16.8 °C -9.9 °F /  -23.3 °C 1008.0 in /  34130.9 hPa NW 1.9 mph /  3.1 km/h 5.5 mph /  8.9 km/h 42 % 0.0 in /  0 mm
19:49 1.7 °F /  -16.8 °C -9.9 °F /  -23.3 °C 1008.0 in /  34130.9 hPa NW 2.3 mph /  3.7 km/h 5.5 mph /  8.9 km/h 42 % 0.0 in /  0 mm
19:54 1.4 °F /  -17 °C -9.8 °F /  -23.2 °C 1008.0 in /  34130.9 hPa West 0.8 mph /  1.3 km/h 4.3 mph /  6.9 km/h 43 % 0.0 in /  0 mm
19:59 1.1 °F /  -17.2 °C -9.8 °F /  -23.2 °C 1007.0 in /  34097 hPa WNW 1.1 mph /  1.8 km/h 4.3 mph /  6.9 km/h 44 % 0.0 in /  0 mm
20:04 1.0 °F /  -17.2 °C -9.9 °F /  -23.3 °C 1007.0 in /  34097 hPa WNW 2.1 mph /  3.4 km/h 4.3 mph /  6.9 km/h 44 % 0.0 in /  0 mm
20:09 0.9 °F /  -17.3 °C -9.7 °F /  -23.2 °C 1007.0 in /  34097 hPa WNW 1.1 mph /  1.8 km/h 4.3 mph /  6.9 km/h 45 % 0.0 in /  0 mm
20:14 0.7 °F /  -17.4 °C -9.6 °F /  -23.1 °C 1007.0 in /  34097 hPa Calm     46 % 0.0 in /  0 mm
20:19 0.6 °F /  -17.4 °C -9.4 °F /  -23 °C 1007.0 in /  34097 hPa WNW 0.8 mph /  1.3 km/h 4.3 mph /  6.9 km/h 47 % 0.0 in /  0 mm
20:24 0.4 °F /  -17.6 °C -9.3 °F /  -22.9 °C 1007.0 in /  34097 hPa WNW 0.8 mph /  1.3 km/h 4.3 mph /  6.9 km/h 48 % 0.0 in /  0 mm
20:29 0.3 °F /  -17.6 °C -9.2 °F /  -22.9 °C 1007.0 in /  34097 hPa NW 0.5 mph /  0.8 km/h 4.3 mph /  6.9 km/h 49 % 0.0 in /  0 mm
20:34 0.3 °F /  -17.6 °C -9.2 °F /  -22.9 °C 1007.0 in /  34097 hPa NW 0.6 mph /  1 km/h 4.3 mph /  6.9 km/h 49 % 0.0 in /  0 mm
20:39 0.1 °F /  -17.7 °C -9.1 °F /  -22.8 °C 1007.0 in /  34097 hPa NW 0.2 mph /  0.3 km/h 2.6 mph /  4.2 km/h 50 % 0.0 in /  0 mm
20:44 0.0 °F /  -17.8 °C -8.9 °F /  -22.7 °C 1007.0 in /  34097 hPa Calm     51 % 0.0 in /  0 mm
20:49 -0.1 °F /  -17.8 °C -9.1 °F /  -22.8 °C 1007.0 in /  34097 hPa Calm     51 % 0.0 in /  0 mm
20:54 -0.2 °F /  -17.9 °C -9.1 °F /  -22.8 °C 1007.0 in /  34097 hPa Calm     51 % 0.0 in /  0 mm
20:59 -0.2 °F /  -17.9 °C -8.9 °F /  -22.7 °C 1007.0 in /  34097 hPa WNW 0.6 mph /  1 km/h 4.3 mph /  6.9 km/h 52 % 0.0 in /  0 mm
21:04 -0.3 °F /  -17.9 °C -9.0 °F /  -22.8 °C 1007.0 in /  34097 hPa WNW 1.1 mph /  1.8 km/h 4.3 mph /  6.9 km/h 52 % 0.0 in /  0 mm
21:09 -0.2 °F /  -17.9 °C -8.7 °F /  -22.6 °C 1007.0 in /  34097 hPa NW 1.4 mph /  2.3 km/h 4.3 mph /  6.9 km/h 53 % 0.0 in /  0 mm
21:14 -0.2 °F /  -17.9 °C -8.7 °F /  -22.6 °C 1006.0 in /  34063.2 hPa NW 1.9 mph /  3.1 km/h 5.0 mph /  8 km/h 53 % 0.0 in /  0 mm
21:19 -0.1 °F /  -17.8 °C -8.3 °F /  -22.4 °C 1006.0 in /  34063.2 hPa NW 1.8 mph /  2.9 km/h 5.0 mph /  8 km/h 54 % 0.0 in /  0 mm
21:24 -0.1 °F /  -17.8 °C -8.3 °F /  -22.4 °C 1006.0 in /  34063.2 hPa NNW 1.3 mph /  2.1 km/h 5.0 mph /  8 km/h 54 % 0.0 in /  0 mm
21:29 -0.1 °F /  -17.8 °C -8.1 °F /  -22.3 °C 1006.0 in /  34063.2 hPa NW 2.1 mph /  3.4 km/h 6.9 mph /  11.1 km/h 55 % 0.0 in /  0 mm
21:34 0.1 °F /  -17.7 °C -7.7 °F /  -22.1 °C 1006.0 in /  34063.2 hPa NNW 2.1 mph /  3.4 km/h 6.9 mph /  11.1 km/h 56 % 0.0 in /  0 mm
21:39 0.0 °F /  -17.8 °C -7.7 °F /  -22.1 °C 1006.0 in /  34063.2 hPa North 1.1 mph /  1.8 km/h 5.0 mph /  8 km/h 56 % 0.0 in /  0 mm
21:44 0.1 °F /  -17.7 °C -7.4 °F /  -21.9 °C 1006.0 in /  34063.2 hPa North 1.4 mph /  2.3 km/h 5.0 mph /  8 km/h 57 % 0.0 in /  0 mm
21:49 0.1 °F /  -17.7 °C -7.4 °F /  -21.9 °C 1006.0 in /  34063.2 hPa NNW 1.1 mph /  1.8 km/h 4.7 mph /  7.6 km/h 57 % 0.0 in /  0 mm
21:54 0.1 °F /  -17.7 °C -7.2 °F /  -21.8 °C 1006.0 in /  34063.2 hPa NW 1.1 mph /  1.8 km/h 6.9 mph /  11.1 km/h 58 % 0.0 in /  0 mm
21:59 0.3 °F /  -17.6 °C -7.0 °F /  -21.7 °C 1006.0 in /  34063.2 hPa NW 2.1 mph /  3.4 km/h 6.9 mph /  11.1 km/h 58 % 0.0 in /  0 mm
22:04 0.6 °F /  -17.4 °C -6.5 °F /  -21.4 °C 1006.0 in /  34063.2 hPa WNW 2.9 mph /  4.7 km/h 6.1 mph /  9.8 km/h 59 % 0.0 in /  0 mm
22:09 1.1 °F /  -17.2 °C -5.8 °F /  -21 °C 1006.0 in /  34063.2 hPa WNW 3.4 mph /  5.5 km/h 6.1 mph /  9.8 km/h 60 % 0.0 in /  0 mm
22:14 2.0 °F /  -16.7 °C -4.7 °F /  -20.4 °C 1006.0 in /  34063.2 hPa WSW 3.9 mph /  6.3 km/h 6.9 mph /  11.1 km/h 61 % 0.0 in /  0 mm
22:19 2.7 °F /  -16.3 °C -3.7 °F /  -19.8 °C 1006.0 in /  34063.2 hPa SSW 3.2 mph /  5.1 km/h 6.9 mph /  11.1 km/h 63 % 0.0 in /  0 mm
22:24 3.2 °F /  -16 °C -2.9 °F /  -19.4 °C 1006.0 in /  34063.2 hPa SW 3.9 mph /  6.3 km/h 11.9 mph /  19.2 km/h 64 % 0.0 in /  0 mm
22:29 3.6 °F /  -15.8 °C -2.6 °F /  -19.2 °C 1006.0 in /  34063.2 hPa SW 6.3 mph /  10.1 km/h 12.2 mph /  19.6 km/h 64 % 0.0 in /  0 mm
22:34 4.3 °F /  -15.4 °C -1.7 °F /  -18.7 °C 1006.0 in /  34063.2 hPa SW 6.4 mph /  10.3 km/h 12.2 mph /  19.6 km/h 65 % 0.0 in /  0 mm
22:39 4.7 °F /  -15.2 °C -1.1 °F /  -18.4 °C 1006.0 in /  34063.2 hPa WSW 6.0 mph /  9.7 km/h 12.2 mph /  19.6 km/h 66 % 0.0 in /  0 mm
22:44 5.0 °F /  -15 °C -0.8 °F /  -18.2 °C 1005.0 in /  34029.3 hPa SW 5.8 mph /  9.3 km/h 12.2 mph /  19.6 km/h 66 % 0.0 in /  0 mm
22:49 5.4 °F /  -14.8 °C -0.4 °F /  -18 °C 1005.0 in /  34029.3 hPa SW 5.6 mph /  9 km/h 10.5 mph /  16.9 km/h 66 % 0.0 in /  0 mm
22:54 5.6 °F /  -14.7 °C -0.3 °F /  -17.9 °C 1005.0 in /  34029.3 hPa SW 5.3 mph /  8.5 km/h 9.7 mph /  15.6 km/h 66 % 0.0 in /  0 mm
22:59 5.8 °F /  -14.6 °C -0.1 °F /  -17.8 °C 1005.0 in /  34029.3 hPa SW 6.0 mph /  9.7 km/h 19.1 mph /  30.7 km/h 66 % 0.0 in /  0 mm
23:04 6.3 °F /  -14.3 °C 0.2 °F /  -17.7 °C 1005.0 in /  34029.3 hPa SW 5.8 mph /  9.3 km/h 19.1 mph /  30.7 km/h 65 % 0.0 in /  0 mm
23:09 6.3 °F /  -14.3 °C 0.2 °F /  -17.7 °C 1005.0 in /  34029.3 hPa SW 4.8 mph /  7.7 km/h 10.5 mph /  16.9 km/h 65 % 0.0 in /  0 mm
23:14 6.5 °F /  -14.2 °C 0.2 °F /  -17.7 °C 1005.0 in /  34029.3 hPa WSW 6.3 mph /  10.1 km/h 16.3 mph /  26.2 km/h 64 % 0.0 in /  0 mm
23:19 6.6 °F /  -14.1 °C 0.3 °F /  -17.6 °C 1005.0 in /  34029.3 hPa WSW 6.3 mph /  10.1 km/h 16.3 mph /  26.2 km/h 64 % 0.0 in /  0 mm
23:24 6.7 °F /  -14.1 °C 0.4 °F /  -17.6 °C 1005.0 in /  34029.3 hPa SW 6.0 mph /  9.7 km/h 18.0 mph /  29 km/h 64 % 0.0 in /  0 mm
23:29 7.0 °F /  -13.9 °C 0.4 °F /  -17.6 °C 1005.0 in /  34029.3 hPa WSW 7.4 mph /  11.9 km/h 18.0 mph /  29 km/h 63 % 0.0 in /  0 mm
23:34 7.1 °F /  -13.8 °C 0.5 °F /  -17.5 °C 1005.0 in /  34029.3 hPa WSW 7.6 mph /  12.2 km/h 16.3 mph /  26.2 km/h 63 % 0.0 in /  0 mm
23:39 7.1 °F /  -13.8 °C 0.3 °F /  -17.6 °C 1005.0 in /  34029.3 hPa SW 7.4 mph /  11.9 km/h 16.6 mph /  26.7 km/h 62 % 0.0 in /  0 mm
23:44 7.1 °F /  -13.8 °C 0.3 °F /  -17.6 °C 1003.9 in /  33992.1 hPa SW 6.4 mph /  10.3 km/h 16.6 mph /  26.7 km/h 62 % 0.0 in /  0 mm
23:49 7.0 °F /  -13.9 °C 0.2 °F /  -17.7 °C 1003.9 in /  33992.1 hPa SW 5.6 mph /  9 km/h 12.2 mph /  19.6 km/h 62 % 0.0 in /  0 mm
23:54 7.0 °F /  -13.9 °C 0.0 °F /  -17.8 °C 1003.9 in /  33992.1 hPa SW 5.6 mph /  9 km/h 15.1 mph /  24.3 km/h 61 % 0.0 in /  0 mm
23:59 7.0 °F /  -13.9 °C 0.0 °F /  -17.8 °C 1003.9 in /  33992.1 hPa SW 6.4 mph /  10.3 km/h 15.1 mph /  24.3 km/h 61 % 0.0 in /  0 mm
Vremenska postaja Senovo
Podatki zbrani iz Weather Underground - 3 mb

Script developed by  Jim McMurry - jmcmurry@mwt.net Adapted for the template by  Wim van der Kuil - Leuven-Template.eu

Vremenski podatki so objavljeni na:

European Weather Network

WeatherCloud

Weather Underground

AWEKAS

HAMweather, WeatherForYou, PWS Weather

MapView

Geostik

Slovenia weather network

Oprema, ki se uporablja:

Vremenski program
Cumulus

Vremenski server
Asus

Cumulus

Asus